Akcakil, Turkey

12:17 PM +03 on February 27, 2017 (GMT +0300)
Bahcedere | | Change Station

Elev 951 ft 39.60 °N, 26.62 °E | Updated 21 seconds ago

Overcast
Overcast
55.9 °F
Feels Like 55.9 °F
N
0.0
Wind Variable Wind from South
Gusts 0.0 mph

Today
High -- | Low -- °F
--% Chance of Precip.
Yesterday
High -- | Low -- °F
Precip. -- in
Pressure 30.09 in
Visibility 5.0 miles
Clouds Few 3500 ft
Scattered Clouds 10000 ft
Mostly Cloudy 18000 ft
Dew Point 46 °F
Humidity 70%
Rainfall 0.00 in
Snow Depth Not available.
7:49 AM 7:03 PM
New Moon, 1% visible
METAR LTFD 270850Z 00000KT 8000 FEW035 SCT100 BKN180 14/09 Q1019
Pressure 30.09 in
Visibility 5.0 miles
Clouds Few 3500 ft
Scattered Clouds 10000 ft
Mostly Cloudy 18000 ft
Dew Point 46 °F
Humidity 70%
Rainfall 0.00 in
Snow Depth Not available.
7:49 AM 7:03 PM
New Moon, 1% visible
METAR LTFD 270850Z 00000KT 8000 FEW035 SCT100 BKN180 14/09 Q1019

Get Your Daily Forecast Email!

Thanks for signing up!

Be on the lookout for a verification email in your inbox.

You'll start receiving the daily forecast at 8 AM.

×

10-Day Weather Forecast

×

Almanac

Astronomy

Feb. 27, 2017 Rise Set
Actual Time
Civil Twilight
Nautical Twilight
Astronomical Twilight
Moon
Length of Visible Light
Length of Day
Tomorrow will be .
, % of the Moon is Illuminated

Today's Extremes

Country Highs Country Lows

Community

WunderPhotos

Upload Photos

1,962,540 photos uploaded!

WunderBlog® & News

Nearby

Air Quality

  Air Quality AQ Index Pollutant
Not available.

Snow Depth

Station Depth Elevation

Earthquake Activity

City Distance Mag. Time & Date
Minimum magnitude displayed is 2.5.

Coastal Water Temperatures

Place Temperature

Stations

Nearby Weather Stations

Station Location Temp. Windchill Dew Point Humidity Wind Precip. Elev Updated Type